Time;durP1;ratioP1;P1;durP2;ratioP2;P2;SDS_P1;SDS_P2;PMS_P1;PMS_P2;Temp;Humidity;BMP_temperature;BMP_pressure;BME280_temperature;BME280_humidity;BME280_pressure;Samples;Min_cycle;Max_cycle;Signal;HPM_P1;HPM_P2
2021/08/23 00:00:33;;;;;;;10.57;8.73;;;;;;;19.50;74.57;102041.59;10480143;28;20053;-82
2021/08/23 00:05:33;;;;;;;;;;;;;;;19.69;74.75;102058.94;10498296;28;20028;-82
2021/08/23 00:10:34;;;;;;;9.55;7.47;;;;;;;19.67;73.78;102043.75;10497595;28;20326;-82
2021/08/23 00:15:37;;;;;;;7.88;7.13;;;;;;;19.45;75.03;102054.31;10479771;28;20131;-82
2021/08/23 00:20:43;;;;;;;20.95;8.18;;;;;;;19.62;74.08;102058.16;10480470;28;20064;-82
2021/08/23 00:25:44;;;;;;;8.73;7.55;;;;;;;19.55;74.37;102062.88;10479146;28;20515;-82
2021/08/23 00:30:44;;;;;;;13.60;7.95;;;;;;;19.51;74.84;102064.41;10495775;28;20025;-82
2021/08/23 00:35:46;;;;;;;9.95;7.97;;;;;;;19.69;74.00;102069.09;10463071;28;20119;-82
2021/08/23 00:40:48;;;;;;;10.50;8.43;;;;;;;19.53;74.25;102070.50;10464791;28;20059;-82
2021/08/23 00:45:51;;;;;;;11.95;8.45;;;;;;;19.55;74.28;102078.50;10505607;28;20124;-81
2021/08/23 00:50:51;;;;;;;12.18;7.25;;;;;;;19.58;74.12;102081.63;10487568;28;20380;-82
2021/08/23 00:55:55;;;;;;;11.50;8.55;;;;;;;19.42;74.42;102087.75;10470009;28;20033;-81
2021/08/23 01:01:04;;;;;;;9.40;7.97;;;;;;;19.38;74.88;102089.28;10487045;28;20078;-82
2021/08/23 01:06:05;;;;;;;10.43;7.93;;;;;;;19.19;74.95;102075.50;10469782;28;20037;-82
2021/08/23 01:11:12;;;;;;;12.27;8.90;;;;;;;19.22;74.60;102101.69;10503205;28;20174;-81
2021/08/23 01:16:13;;;;;;;9.50;8.43;;;;;;;19.25;74.52;102112.22;10486309;28;20526;-82
2021/08/23 01:21:15;;;;;;;11.23;8.65;;;;;;;19.30;74.26;102115.09;10485436;28;20048;-82
2021/08/23 01:26:21;;;;;;;9.93;8.93;;;;;;;19.03;75.42;102125.50;10500930;28;20403;-82
2021/08/23 01:31:45;;;;;;;12.15;9.35;;;;;;;19.02;75.33;102129.31;10485647;28;20021;-82
2021/08/23 01:36:46;;;;;;;9.82;7.82;;;;;;;19.04;75.29;102139.00;10486430;28;20037;-82
2021/08/23 01:41:49;;;;;;;13.88;8.32;;;;;;;18.91;75.28;102141.84;10485508;28;20476;-82
2021/08/23 01:46:49;;;;;;;12.25;8.43;;;;;;;18.83;75.46;102155.88;10485652;28;20043;-82
2021/08/23 01:51:53;;;;;;;13.13;8.80;;;;;;;18.64;75.99;102112.91;10467868;28;20052;-82
2021/08/23 01:56:54;;;;;;;8.38;7.68;;;;;;;18.89;75.37;102141.25;10484192;28;20112;-82
2021/08/23 02:01:58;;;;;;;12.55;9.57;;;;;;;18.98;74.66;102148.13;10483834;28;20045;-81
2021/08/23 02:06:58;;;;;;;12.80;9.57;;;;;;;18.86;74.91;102146.31;10468639;28;20586;-82
2021/08/23 02:11:59;;;;;;;11.20;8.23;;;;;;;18.89;74.73;102163.22;10483318;28;20040;-82
2021/08/23 02:17:01;;;;;;;14.38;9.38;;;;;;;18.81;75.43;102167.03;10467500;28;20060;-82
2021/08/23 02:22:02;;;;;;;8.40;7.68;;;;;;;18.83;75.03;102191.53;10484225;28;20037;-82
2021/08/23 02:27:03;;;;;;;14.25;7.63;;;;;;;18.80;75.39;102176.34;10465557;28;20064;-82
2021/08/23 02:32:08;;;;;;;11.48;7.63;;;;;;;18.94;74.87;102176.25;10479875;28;20048;-82
2021/08/23 02:37:10;;;;;;;13.68;8.05;;;;;;;18.78;74.47;102200.41;10462125;28;20237;-82
2021/08/23 02:42:11;;;;;;;9.55;6.93;;;;;;;18.81;75.34;102194.50;10479077;28;20043;-81
2021/08/23 02:47:12;;;;;;;6.55;5.85;;;;;;;18.81;74.07;102215.59;10495711;28;20035;-82
2021/08/23 02:52:13;;;;;;;9.02;6.30;;;;;;;18.80;75.18;102205.69;10478391;28;20056;-82
2021/08/23 02:57:16;;;;;;;11.07;4.95;;;;;;;18.94;74.44;102215.53;10477803;28;20044;-82
2021/08/23 03:02:16;;;;;;;8.73;6.60;;;;;;;18.80;75.01;102224.91;10461680;28;20045;-82
2021/08/23 03:07:18;;;;;;;16.17;5.45;;;;;;;18.94;74.78;102220.19;10477501;28;20033;-82
2021/08/23 03:12:18;;;;;;;7.50;4.65;;;;;;;18.57;73.82;102190.59;10495637;28;20541;-82
2021/08/23 03:17:20;;;;;;;6.50;4.78;;;;;;;18.74;72.98;102217.56;10477115;28;20036;-83
2021/08/23 03:22:27;;;;;;;4.75;4.05;;;;;;;18.84;73.67;102244.53;10460214;28;20127;-82
2021/08/23 03:27:28;;;;;;;5.30;3.75;;;;;;;18.85;74.84;102243.44;10477185;28;20120;-83
2021/08/23 03:32:30;;;;;;;5.05;4.15;;;;;;;18.86;74.15;102248.75;10494067;28;20044;-83
2021/08/23 03:37:30;;;;;;;9.73;4.45;;;;;;;18.89;74.47;102244.69;10491468;28;20132;-83
2021/08/23 03:42:32;;;;;;;3.67;3.38;;;;;;;18.92;73.12;102258.84;10476811;28;20060;-83
2021/08/23 03:47:32;;;;;;;9.15;3.42;;;;;;;18.83;75.25;102257.41;10461234;28;20067;-83
2021/08/23 03:52:34;;;;;;;3.78;3.47;;;;;;;18.97;73.57;102263.66;10477230;28;20109;-83
2021/08/23 03:57:36;;;;;;;5.97;3.55;;;;;;;18.90;73.38;102265.59;10476520;28;20043;-83
2021/08/23 04:02:37;;;;;;;11.55;3.53;;;;;;;18.93;72.51;102273.41;10478155;28;20037;-84
2021/08/23 04:07:37;;;;;;;9.63;3.33;;;;;;;18.87;73.33;102288.00;10477061;28;20032;-83
2021/08/23 04:12:38;;;;;;;3.13;2.92;;;;;;;18.88;73.79;102285.03;10476148;28;20046;-83
2021/08/23 04:17:39;;;;;;;2.83;2.45;;;;;;;18.72;73.19;102239.72;10490114;28;20036;-83
2021/08/23 04:22:39;;;;;;;5.25;3.70;;;;;;;18.75;72.66;102261.22;10471921;28;20417;-83
2021/08/23 04:27:41;;;;;;;4.53;3.58;;;;;;;18.99;72.77;102299.97;10471035;28;20041;-82
2021/08/23 04:32:42;;;;;;;8.07;2.75;;;;;;;18.87;73.93;102310.78;10473211;28;20037;-83
2021/08/23 04:37:44;;;;;;;6.82;3.67;;;;;;;19.00;72.58;102318.13;10471661;28;20164;-82
2021/08/23 04:42:48;;;;;;;6.75;3.55;;;;;;;18.92;72.96;102321.09;10471278;28;20036;-83
2021/08/23 04:47:49;;;;;;;8.25;2.55;;;;;;;18.95;71.95;102340.75;10402829;28;20082;-82
2021/08/23 04:52:50;;;;;;;6.32;3.38;;;;;;;18.93;72.44;102342.88;10455178;28;20121;-82
2021/08/23 04:57:56;;;;;;;5.93;2.95;;;;;;;18.94;72.70;102343.69;10486181;28;20416;-83
2021/08/23 05:02:59;;;;;;;8.18;3.35;;;;;;;18.76;72.45;102311.47;10488201;28;20481;-83
2021/08/23 05:08:03;;;;;;;6.47;3.08;;;;;;;19.15;71.97;102359.88;10468897;28;20133;-84
2021/08/23 05:13:12;;;;;;;2.92;2.63;;;;;;;18.84;72.84;102324.94;10484988;28;20052;-82
2021/08/23 05:18:13;;;;;;;9.80;3.38;;;;;;;19.07;72.09;102354.63;10469138;28;20045;-82
2021/08/23 05:23:19;;;;;;;5.32;3.00;;;;;;;19.12;72.72;102373.19;10485865;28;20032;-81
2021/08/23 05:28:46;;;;;;;4.00;3.28;;;;;;;19.19;71.71;102372.09;10436943;28;20383;-82
2021/08/23 05:33:52;;;;;;;6.05;4.70;;;;;;;19.20;72.61;102379.25;10495537;28;20060;-82
2021/08/23 05:38:55;;;;;;;16.17;4.82;;;;;;;19.17;71.87;102378.84;10493782;28;20063;-82
2021/08/23 05:44:00;;;;;;;8.00;2.92;;;;;;;19.25;72.22;102390.44;10476652;28;20391;-82
2021/08/23 05:49:15;;;;;;;17.35;3.85;;;;;;;19.32;73.48;102397.81;10475975;28;20060;-82
2021/08/23 05:54:58;;;;;;;5.25;4.10;;;;;;;19.43;72.70;102405.34;10491927;28;20416;-82
2021/08/23 05:59:59;;;;;;;3.38;3.08;;;;;;;19.46;73.02;102415.88;10489234;28;20047;-83
2021/08/23 06:04:59;;;;;;;6.40;3.15;;;;;;;19.59;72.96;102410.34;10493142;28;20053;-82
2021/08/23 06:10:00;;;;;;;6.40;3.53;;;;;;;19.74;71.49;102421.03;10492589;28;20108;-82
2021/08/23 06:15:00;;;;;;;10.02;3.63;;;;;;;19.80;72.19;102413.81;10458573;28;20110;-82
2021/08/23 06:20:01;;;;;;;2.80;2.22;;;;;;;19.91;72.37;102418.59;10492913;28;20036;-83
2021/08/23 06:25:01;;;;;;;2.83;2.63;;;;;;;20.04;71.97;102406.63;10490726;28;20044;-83
2021/08/23 06:30:04;;;;;;;2.58;2.38;;;;;;;20.16;72.13;102422.19;10492558;28;20075;-82
2021/08/23 06:35:05;;;;;;;4.20;2.58;;;;;;;20.27;72.99;102414.28;10494638;28;20138;-82
2021/08/23 06:40:08;;;;;;;6.47;4.35;;;;;;;19.98;71.24;102386.41;10493584;28;20041;-82
2021/08/23 06:45:13;;;;;;;22.65;4.82;;;;;;;20.28;72.02;102411.31;10476354;28;20031;-82
2021/08/23 06:51:23;;;;;;;;;;;;;;;;;;;;;
2021/08/23 06:56:44;;;;;;;12.68;3.05;;;;;;;20.41;72.78;102411.19;10443605;28;20052;-83
2021/08/23 07:02:01;;;;;;;7.20;3.75;;;;;;;20.42;73.33;102445.03;10477546;28;20036;-82
2021/08/23 07:07:37;;;;;;;3.38;2.70;;;;;;;20.64;73.12;102449.13;10476210;28;20429;-82
2021/08/23 07:12:53;;;;;;;6.13;2.60;;;;;;;20.66;72.20;102429.59;10461547;28;20104;-82
2021/08/23 07:18:28;;;;;;;14.77;3.13;;;;;;;21.05;72.68;102466.84;10408240;28;20452;-83
2021/08/23 07:24:16;;;;;;;;;;;;;;;;;;;;;
2021/08/23 07:35:28;;;;;;;7.70;2.72;;;;;;;21.49;70.51;102478.66;10387442;28;20053;-83
2021/08/23 07:40:29;;;;;;;4.10;2.30;;;;;;;21.47;67.35;102461.50;10391728;28;20037;-84
2021/08/23 07:45:34;;;;;;;6.07;2.80;;;;;;;22.05;68.80;102474.66;10390498;28;20393;-83
2021/08/23 07:50:50;;;;;;;10.02;2.90;;;;;;;22.65;69.99;102473.66;10392100;28;20085;-83
2021/08/23 07:55:51;;;;;;;6.32;2.42;;;;;;;23.25;64.23;102474.47;10391626;28;20041;-82
2021/08/23 08:01:15;;;;;;;;;;;;;;;;;;;;;
2021/08/23 08:06:21;;;;;;;5.53;2.17;;;;;;;24.44;60.28;102473.69;10407158;28;20536;-82
2021/08/23 08:11:31;;;;;;;3.80;2.70;;;;;;;24.45;63.07;102475.38;10407114;28;20041;-82
2021/08/23 08:16:32;;;;;;;3.10;2.25;;;;;;;25.41;58.60;102477.84;10373625;28;20041;-82
2021/08/23 08:21:41;;;;;;;3.70;3.20;;;;;;;26.37;64.07;102477.97;10389199;28;20036;-82
2021/08/23 08:26:54;;;;;;;2.70;2.45;;;;;;;27.00;62.61;102480.09;10416943;28;20048;-82
2021/08/23 08:31:57;;;;;;;4.35;2.47;;;;;;;27.39;62.75;102474.16;10434667;28;20469;-83
2021/08/23 08:37:04;;;;;;;3.25;1.75;;;;;;;27.35;57.22;102499.75;10433333;28;20048;-82
2021/08/23 08:42:11;;;;;;;5.43;1.85;;;;;;;26.80;51.98;102508.59;10433377;28;20349;-82
2021/08/23 08:47:29;;;;;;;4.75;2.15;;;;;;;26.07;57.99;102492.47;10449350;28;20037;-82
2021/08/23 08:52:36;;;;;;;4.30;2.35;;;;;;;26.23;62.12;102478.69;10449891;28;20070;-82
2021/08/23 08:57:37;;;;;;;2.20;1.70;;;;;;;26.16;54.65;102523.34;10448707;28;20036;-82
2021/08/23 09:02:52;;;;;;;2.88;2.58;;;;;;;25.82;53.17;102523.56;10437180;28;20460;-82
2021/08/23 09:08:04;;;;;;;2.88;2.60;;;;;;;25.35;54.38;102514.94;10458634;28;20033;-82
2021/08/23 09:13:09;;;;;;;3.88;2.28;;;;;;;25.43;54.06;102514.47;10455719;28;20036;-82
2021/08/23 09:18:20;;;;;;;;;;;;;;;;;;;;;
2021/08/23 09:23:31;;;;;;;2.42;2.22;;;;;;;27.51;50.77;102520.13;10468357;28;20095;-82
2021/08/23 09:28:38;;;;;;;6.80;2.63;;;;;;;27.43;50.85;102506.72;10481661;28;20048;-82
2021/08/23 09:33:45;;;;;;;5.78;2.13;;;;;;;26.42;57.20;102535.53;10479979;28;20059;-82
2021/08/23 09:39:03;;;;;;;2.38;1.92;;;;;;;25.41;58.36;102513.91;10495931;28;20392;-83
2021/08/23 09:44:12;;;;;;;2.22;1.50;;;;;;;26.70;52.23;102519.66;10460449;28;20043;-82
2021/08/23 09:49:16;;;;;;;4.38;1.75;;;;;;;27.35;49.23;102521.19;10476696;28;20074;-82
2021/08/23 09:54:20;;;;;;;2.33;2.13;;;;;;;28.19;45.80;102524.75;10494270;28;20123;-82
2021/08/23 09:59:28;;;;;;;2.05;1.92;;;;;;;27.70;47.24;102502.94;10476126;28;20470;-82
2021/08/23 10:04:29;;;;;;;3.38;1.70;;;;;;;28.02;50.42;102520.28;10476014;28;20093;-82
2021/08/23 10:09:30;;;;;;;2.25;2.00;;;;;;;27.96;53.71;102534.47;10491913;28;20116;-82
2021/08/23 10:14:33;;;;;;;1.60;1.50;;;;;;;28.03;44.44;102521.13;10475420;28;20044;-83
2021/08/23 10:19:33;;;;;;;2.88;2.38;;;;;;;28.07;45.28;102522.22;10475498;28;20493;-82
2021/08/23 10:24:34;;;;;;;1.77;1.67;;;;;;;28.10;42.83;102526.41;10458599;28;20160;-83
2021/08/23 10:29:39;;;;;;;5.80;2.08;;;;;;;28.22;47.35;102524.19;10475606;28;20097;-82
2021/08/23 10:34:42;;;;;;;2.63;1.88;;;;;;;28.33;46.38;102523.06;10493011;28;20063;-83
2021/08/23 10:39:43;;;;;;;1.95;1.83;;;;;;;28.71;40.37;102501.34;10476014;28;20326;-83
2021/08/23 10:44:44;;;;;;;3.95;1.75;;;;;;;28.56;45.08;102488.28;10458451;28;20132;-82
2021/08/23 10:49:48;;;;;;;6.55;1.88;;;;;;;28.99;47.19;102524.97;10474768;28;20349;-83
2021/08/23 10:54:49;;;;;;;7.82;1.80;;;;;;;29.35;45.63;102506.19;10473663;28;20409;-83
2021/08/23 10:59:51;;;;;;;1.88;1.77;;;;;;;29.85;40.14;102521.03;10458010;28;20208;-83
2021/08/23 11:05:10;;;;;;;1.40;1.35;;;;;;;30.17;43.18;102527.25;10491067;28;20033;-82
2021/08/23 11:10:29;;;;;;;1.42;1.33;;;;;;;29.59;47.39;102525.06;10491035;28;20051;-83
2021/08/23 11:15:30;;;;;;;2.38;1.50;;;;;;;29.81;44.08;102508.78;10490022;28;20047;-82
2021/08/23 11:20:34;;;;;;;7.57;1.95;;;;;;;28.72;37.76;102517.81;10492038;28;20032;-82
2021/08/23 11:25:43;;;;;;;1.42;1.30;;;;;;;28.37;39.83;102524.22;10490917;28;20124;-82
2021/08/23 11:30:48;;;;;;;1.75;1.65;;;;;;;29.01;42.90;102483.75;10489671;28;20097;-82
2021/08/23 11:35:48;;;;;;;2.08;1.92;;;;;;;29.34;38.10;102507.31;10491939;28;20044;-82
2021/08/23 11:40:49;;;;;;;3.25;2.03;;;;;;;29.56;42.79;102518.09;10492091;28;20040;-82
2021/08/23 11:45:49;;;;;;;1.30;1.20;;;;;;;29.97;38.97;102520.69;10493377;28;20052;-82
2021/08/23 11:50:49;;;;;;;1.65;1.55;;;;;;;30.97;43.42;102502.47;10493375;28;20342;-82
2021/08/23 11:55:51;;;;;;;2.83;2.17;;;;;;;30.63;40.49;102519.31;10491715;28;20033;-81
2021/08/23 12:01:04;;;;;;;0.98;0.98;;;;;;;31.15;46.61;102506.47;10494033;28;20440;-82
2021/08/23 12:06:12;;;;;;;7.10;1.70;;;;;;;30.48;43.99;102519.47;10491737;28;20040;-81
2021/08/23 12:11:19;;;;;;;7.15;2.13;;;;;;;31.28;38.63;102485.31;10495072;28;20123;-82
2021/08/23 12:16:33;;;;;;;1.98;1.45;;;;;;;30.29;45.35;102509.00;10493118;28;20107;-82
2021/08/23 12:21:33;;;;;;;1.77;1.67;;;;;;;30.24;44.26;102514.63;10491847;28;20047;-82
2021/08/23 12:26:54;;;;;;;1.80;1.65;;;;;;;30.34;49.36;102527.69;10474209;28;20048;-82
2021/08/23 12:31:58;;;;;;;1.88;1.77;;;;;;;30.98;40.63;102514.50;10450713;28;20491;-82
2021/08/23 12:37:00;;;;;;;8.15;2.25;;;;;;;31.29;40.87;102523.38;10468189;28;20072;-82
2021/08/23 12:42:35;;;;;;;6.68;2.50;;;;;;;30.95;42.95;102492.72;10462013;28;20035;-82
2021/08/23 12:47:37;;;;;;;1.45;1.35;;;;;;;31.83;40.80;102522.09;10444260;28;20043;-82
2021/08/23 12:52:59;;;;;;;1.42;1.42;;;;;;;31.74;44.96;102521.09;10458245;28;20060;-82
2021/08/23 12:58:02;;;;;;;1.42;1.33;;;;;;;30.39;41.89;102521.22;10458719;28;20429;-83
2021/08/23 13:03:04;;;;;;;2.45;1.50;;;;;;;30.34;45.93;102527.69;10458823;28;20039;-82
2021/08/23 13:08:05;;;;;;;2.75;1.40;;;;;;;29.51;44.72;102529.28;10443284;28;20041;-82
2021/08/23 13:13:09;;;;;;;4.57;1.95;;;;;;;29.22;47.19;102517.13;10459595;28;20261;-83
2021/08/23 13:18:26;;;;;;;4.75;1.83;;;;;;;29.77;47.38;102535.63;10457806;28;20045;-83
2021/08/23 13:23:32;;;;;;;4.80;2.75;;;;;;;29.49;45.47;102537.13;10458920;28;20067;-82
2021/08/23 13:28:32;;;;;;;2.50;2.33;;;;;;;28.98;43.08;102389.44;10464529;28;20060;-82
2021/08/23 13:33:36;;;;;;;6.72;2.38;;;;;;;29.42;49.37;102526.28;10483798;28;20059;-83
2021/08/23 13:38:36;;;;;;;8.00;2.10;;;;;;;29.57;47.03;102527.31;10502167;28;20210;-83
2021/08/23 13:43:48;;;;;;;1.92;1.83;;;;;;;29.24;47.82;102524.09;10483952;28;20037;-83
2021/08/23 13:48:54;;;;;;;2.75;1.88;;;;;;;29.18;44.44;102486.19;10482352;28;20029;-83
2021/08/23 13:53:58;;;;;;;2.00;1.85;;;;;;;30.01;43.48;102513.38;10482240;28;20561;-83
2021/08/23 13:58:59;;;;;;;3.20;1.52;;;;;;;29.76;45.22;102533.09;10465177;28;20484;-82
2021/08/23 14:04:26;;;;;;;11.55;1.80;;;;;;;29.71;45.64;102530.31;10498014;28;20078;-83
2021/08/23 14:09:31;;;;;;;2.08;1.40;;;;;;;29.56;46.06;102528.44;10484168;28;20051;-83
2021/08/23 14:14:37;;;;;;;4.28;1.25;;;;;;;29.07;44.43;102529.16;10482113;28;20033;-83
2021/08/23 14:19:39;;;;;;;1.95;1.75;;;;;;;29.12;43.57;102538.38;10496857;28;20055;-82
2021/08/23 14:24:40;;;;;;;2.88;1.88;;;;;;;29.49;42.32;102500.00;10498076;28;20044;-82
2021/08/23 14:29:40;;;;;;;1.55;1.45;;;;;;;28.80;45.21;102527.53;10479957;28;20041;-82
2021/08/23 14:34:41;;;;;;;4.03;1.30;;;;;;;28.05;44.20;102516.94;10479512;28;20178;-82
2021/08/23 14:39:41;;;;;;;3.13;2.72;;;;;;;28.27;44.05;102527.84;10479388;28;20556;-82
2021/08/23 14:44:42;;;;;;;1.75;1.65;;;;;;;28.26;44.36;102514.16;10496427;28;20108;-82
2021/08/23 14:49:43;;;;;;;1.42;1.33;;;;;;;27.52;44.35;102529.31;10478293;28;20054;-83
2021/08/23 14:54:43;;;;;;;2.10;1.50;;;;;;;27.93;45.92;102513.59;10478442;28;20127;-82
2021/08/23 14:59:44;;;;;;;2.40;2.13;;;;;;;27.55;44.74;102535.16;10493325;28;20124;-83
2021/08/23 15:04:44;;;;;;;2.58;2.38;;;;;;;26.98;44.78;102540.69;10475981;28;20159;-82
2021/08/23 15:09:45;;;;;;;3.83;2.28;;;;;;;26.07;45.13;102542.44;10491907;28;20048;-83
2021/08/23 15:14:46;;;;;;;17.80;2.20;;;;;;;25.95;45.20;102541.75;10475249;28;20040;-83
2021/08/23 15:19:46;;;;;;;7.55;2.53;;;;;;;25.96;44.63;102548.97;10493743;28;20075;-83
2021/08/23 15:24:47;;;;;;;3.85;2.63;;;;;;;25.74;47.34;102548.97;10491105;28;20060;-83
2021/08/23 15:29:47;;;;;;;2.10;1.67;;;;;;;25.68;47.66;102545.28;10457125;28;20060;-83
2021/08/23 15:34:49;;;;;;;2.95;1.98;;;;;;;25.17;50.02;102494.72;10472987;28;20053;-83
2021/08/23 15:39:52;;;;;;;1.67;1.50;;;;;;;24.59;46.39;102530.16;10472423;28;20060;-83
2021/08/23 15:44:53;;;;;;;1.90;1.80;;;;;;;24.81;47.05;102533.00;10490989;28;20429;-83
2021/08/23 15:49:54;;;;;;;3.15;1.85;;;;;;;24.57;46.46;102545.38;10472163;28;20068;-83
2021/08/23 15:54:54;;;;;;;2.00;1.85;;;;;;;24.26;49.54;102553.09;10472454;28;20081;-83
2021/08/23 15:59:55;;;;;;;2.33;2.13;;;;;;;24.25;45.72;102553.34;10489815;28;20450;-83
2021/08/23 16:04:55;;;;;;;1.90;1.67;;;;;;;24.11;44.39;102555.59;10489460;28;20448;-83
2021/08/23 16:09:56;;;;;;;1.85;1.73;;;;;;;23.67;49.73;102553.34;10473303;28;20106;-83
2021/08/23 16:14:56;;;;;;;4.43;1.83;;;;;;;23.74;47.48;102558.78;10473300;28;20130;-83
2021/08/23 16:19:57;;;;;;;3.33;2.15;;;;;;;23.57;49.18;102538.44;10492779;28;20083;-83
2021/08/23 16:24:58;;;;;;;7.03;1.75;;;;;;;23.77;48.33;102557.41;10493264;28;20052;-82
2021/08/23 16:29:59;;;;;;;3.17;2.38;;;;;;;23.60;49.31;102557.31;10458731;28;20586;-83
2021/08/23 16:35:00;;;;;;;1.40;1.33;;;;;;;23.34;47.95;102555.94;10474811;28;20040;-83
2021/08/23 16:40:00;;;;;;;1.90;1.80;;;;;;;23.07;49.15;102574.94;10492993;28;20032;-83
2021/08/23 16:45:01;;;;;;;4.63;1.65;;;;;;;23.09;48.46;102570.84;10474549;28;20040;-83
2021/08/23 16:50:01;;;;;;;1.23;1.13;;;;;;;23.14;47.56;102571.00;10471974;28;20483;-83
2021/08/23 16:55:02;;;;;;;3.33;1.65;;;;;;;23.11;47.30;102578.94;10473446;28;20478;-83
2021/08/23 17:00:03;;;;;;;2.22;1.95;;;;;;;23.05;47.01;102577.13;10474479;28;20085;-83
2021/08/23 17:05:05;;;;;;;1.38;1.30;;;;;;;22.90;47.74;102577.56;10493378;28;20036;-83
2021/08/23 17:10:10;;;;;;;1.60;1.50;;;;;;;22.93;47.97;102577.94;10492363;28;20062;-83
2021/08/23 17:15:11;;;;;;;2.17;2.08;;;;;;;22.43;52.38;102502.94;10471696;28;20033;-83
2021/08/23 17:20:12;;;;;;;2.22;2.03;;;;;;;22.89;49.70;102573.13;10486815;28;20028;-83
2021/08/23 17:25:12;;;;;;;3.65;2.42;;;;;;;22.74;50.90;102571.66;10493036;28;20113;-83
2021/08/23 17:30:13;;;;;;;1.55;1.45;;;;;;;22.54;49.67;102575.84;10495845;28;20115;-83
2021/08/23 17:35:13;;;;;;;8.02;2.78;;;;;;;22.60;48.68;102589.53;10479641;28;20463;-83
2021/08/23 17:40:14;;;;;;;8.57;1.92;;;;;;;22.41;51.01;102596.22;10462123;28;20051;-84
2021/08/23 17:45:15;;;;;;;1.25;1.20;;;;;;;22.43;50.58;102599.56;10480011;28;20036;-83
2021/08/23 17:50:16;;;;;;;1.48;1.05;;;;;;;22.32;51.43;102603.97;10500365;28;20103;-83
2021/08/23 17:55:16;;;;;;;11.35;2.00;;;;;;;22.00;50.81;102587.63;10480500;28;20210;-83
2021/08/23 18:00:18;;;;;;;2.67;1.75;;;;;;;21.95;51.73;102612.34;10482612;28;20107;-83
2021/08/23 18:05:19;;;;;;;5.43;1.77;;;;;;;21.67;52.54;102590.00;10500136;28;20123;-83
2021/08/23 18:10:19;;;;;;;3.00;1.80;;;;;;;21.65;52.47;102581.09;10466160;28;20039;-84
2021/08/23 18:15:20;;;;;;;3.50;1.58;;;;;;;21.76;52.73;102618.91;10483203;28;20406;-83
2021/08/23 18:20:20;;;;;;;4.15;1.98;;;;;;;21.58;55.31;102628.88;10480386;28;20143;-83
2021/08/23 18:25:21;;;;;;;2.20;1.90;;;;;;;21.33;54.00;102634.41;10479681;28;20101;-82
2021/08/23 18:30:22;;;;;;;6.60;2.00;;;;;;;21.12;55.69;102638.44;10481323;28;20272;-83
2021/08/23 18:35:23;;;;;;;12.25;1.83;;;;;;;21.07;54.02;102613.47;10499796;28;20043;-83
2021/08/23 18:40:23;;;;;;;2.10;1.33;;;;;;;21.10;54.62;102648.00;10497606;28;20170;-83
2021/08/23 18:45:23;;;;;;;1.20;1.10;;;;;;;20.83;54.93;102647.34;10426018;28;20514;-83
2021/08/23 18:50:24;;;;;;;2.15;1.52;;;;;;;20.75;54.81;102658.66;10498259;28;20025;-83
2021/08/23 18:55:24;;;;;;;3.92;1.70;;;;;;;20.60;54.97;102654.28;10480566;28;20136;-83
2021/08/23 19:00:25;;;;;;;2.00;1.35;;;;;;;20.38;55.76;102652.91;10481148;28;20055;-82
2021/08/23 19:05:25;;;;;;;1.40;1.30;;;;;;;20.21;55.54;102675.44;10463617;28;20048;-82
2021/08/23 19:10:26;;;;;;;3.38;1.73;;;;;;;20.12;57.35;102649.25;10495440;28;20428;-82
2021/08/23 19:15:26;;;;;;;1.15;1.05;;;;;;;20.15;56.71;102673.56;10495732;28;20104;-82
2021/08/23 19:20:27;;;;;;;4.47;1.58;;;;;;;20.11;57.44;102680.56;10479114;28;20041;-83
2021/08/23 19:25:27;;;;;;;4.88;2.05;;;;;;;20.07;57.63;102693.09;10496662;28;20470;-82
2021/08/23 19:30:35;;;;;;;1.67;1.50;;;;;;;19.92;57.83;102687.00;10479170;28;20143;-82
2021/08/23 19:35:38;;;;;;;2.40;2.17;;;;;;;19.81;60.28;102698.66;10498210;28;20580;-84
2021/08/23 19:40:50;;;;;;;5.07;2.65;;;;;;;19.32;59.67;102629.38;10499245;28;20035;-83
2021/08/23 19:46:01;;;;;;;8.15;2.13;;;;;;;19.59;61.30;102711.75;10479846;28;20123;-84
2021/08/23 19:51:23;;;;;;;2.83;2.05;;;;;;;19.66;59.36;102719.00;10497346;28;20034;-83
2021/08/23 19:56:35;;;;;;;4.20;1.50;;;;;;;19.64;59.14;102731.25;10475644;28;20519;-84
2021/08/23 20:02:01;;;;;;;;;;;;;;;;;;;;;
2021/08/23 20:07:19;;;;;;;;;;;;;;;;;;;;;
2021/08/23 20:12:19;;;;;;;5.43;2.47;;;;;;;19.06;59.81;102665.97;10474768;28;20032;-83
2021/08/23 20:17:58;;;;;;;2.63;1.92;;;;;;;19.38;61.27;102737.56;10473211;28;20032;-83
2021/08/23 20:22:59;;;;;;;2.80;2.58;;;;;;;18.71;60.13;102637.81;10457615;28;20094;-83
2021/08/23 20:27:59;;;;;;;2.58;2.33;;;;;;;19.25;60.57;102738.41;10488110;28;20185;-83
2021/08/23 20:33:00;;;;;;;4.28;2.47;;;;;;;19.00;61.63;102710.72;10490152;28;20363;-83
2021/08/23 20:38:08;;;;;;;7.47;2.40;;;;;;;18.98;61.63;102721.06;10488298;28;20044;-83
2021/08/23 20:43:16;;;;;;;2.33;2.08;;;;;;;18.75;61.43;102688.50;10471305;28;20055;-83
2021/08/23 20:48:17;;;;;;;3.58;2.10;;;;;;;18.86;61.68;102733.72;10491112;28;20024;-82
2021/08/23 20:53:17;;;;;;;8.07;3.67;;;;;;;18.86;61.96;102752.91;10488493;28;20040;-83
2021/08/23 20:58:40;;;;;;;5.93;3.22;;;;;;;18.29;64.19;102657.16;10491067;28;20036;-83
2021/08/23 21:03:48;;;;;;;3.75;3.25;;;;;;;18.78;62.99;102752.06;10500302;28;20029;-83
2021/08/23 21:08:59;;;;;;;4.13;3.33;;;;;;;17.87;64.41;102636.31;10482822;28;20028;-84
2021/08/23 21:14:00;;;;;;;2.92;2.67;;;;;;;17.97;63.28;102650.50;10480923;28;20041;-85
2021/08/23 21:19:01;;;;;;;2.75;2.55;;;;;;;18.16;63.27;102692.75;10462580;28;20444;-85
2021/08/23 21:24:02;;;;;;;5.47;3.15;;;;;;;18.46;64.69;102747.28;10479195;28;20075;-82
2021/08/23 21:29:12;;;;;;;6.50;3.30;;;;;;;18.54;63.69;102775.41;10496185;28;20464;-83
2021/08/23 21:34:12;;;;;;;5.80;3.58;;;;;;;18.36;64.32;102767.72;10481209;28;20060;-84
2021/08/23 21:39:13;;;;;;;11.10;3.35;;;;;;;18.42;64.10;102781.69;10495062;28;20140;-84
2021/08/23 21:44:14;;;;;;;5.47;3.58;;;;;;;18.21;64.85;102746.97;10478319;28;20052;-83
2021/08/23 21:49:15;;;;;;;4.30;3.15;;;;;;;18.27;65.60;102774.41;10478617;28;20506;-83
2021/08/23 21:54:18;;;;;;;6.50;4.10;;;;;;;18.22;65.85;102771.47;10477612;28;20036;-83
2021/08/23 21:59:18;;;;;;;10.52;3.92;;;;;;;17.86;65.13;102728.63;10503130;28;20117;-86
2021/08/23 22:04:19;;;;;;;6.28;3.92;;;;;;;18.20;65.07;102784.53;10503305;28;20083;-85
2021/08/23 22:09:19;;;;;;;5.20;2.70;;;;;;;18.12;64.96;102788.28;10502940;28;20050;-84
2021/08/23 22:14:20;;;;;;;11.90;5.07;;;;;;;18.10;64.90;102784.03;10501184;28;20488;-84
2021/08/23 22:19:24;;;;;;;4.07;3.30;;;;;;;17.74;65.73;102741.19;10484361;28;20041;-85
2021/08/23 22:24:25;;;;;;;8.40;3.85;;;;;;;17.61;65.83;102747.44;10484767;28;20036;-84
2021/08/23 22:29:26;;;;;;;7.57;4.80;;;;;;;17.84;65.90;102802.00;10484388;28;20179;-85
2021/08/23 22:34:26;;;;;;;6.35;3.92;;;;;;;17.77;66.51;102795.63;10501209;28;20166;-84
2021/08/23 22:39:35;;;;;;;6.32;4.95;;;;;;;17.74;66.54;102793.25;10484336;28;20044;-84
2021/08/23 22:44:45;;;;;;;4.32;3.95;;;;;;;17.76;66.61;102820.44;10484681;28;20052;-84
2021/08/23 22:49:51;;;;;;;10.73;4.53;;;;;;;16.93;66.42;102670.38;10499490;28;20032;-84
2021/08/23 22:54:52;;;;;;;4.47;4.07;;;;;;;17.69;66.26;102808.59;10500058;28;20074;-84
2021/08/23 22:59:52;;;;;;;6.93;5.07;;;;;;;17.66;66.67;102809.84;10467144;28;20407;-84
2021/08/23 23:04:59;;;;;;;13.73;4.55;;;;;;;17.56;67.14;102810.19;10483235;28;20491;-85
2021/08/23 23:10:00;;;;;;;6.38;5.72;;;;;;;17.26;67.76;102781.22;10482654;28;20107;-85
2021/08/23 23:15:00;;;;;;;11.95;4.57;;;;;;;17.52;67.26;102808.88;10499067;28;20150;-84
2021/08/23 23:20:01;;;;;;;8.98;4.55;;;;;;;17.54;67.08;102812.25;10482737;28;20032;-84
2021/08/23 23:25:01;;;;;;;12.40;5.20;;;;;;;17.15;67.20;102747.03;10498508;28;20044;-84
2021/08/23 23:30:04;;;;;;;11.75;4.60;;;;;;;17.44;67.89;102818.06;10482567;28;20101;-84
2021/08/23 23:35:05;;;;;;;6.35;4.72;;;;;;;17.49;67.82;102822.13;10500143;28;20500;-84
2021/08/23 23:40:08;;;;;;;5.55;4.68;;;;;;;17.47;67.57;102816.84;10500266;28;20380;-84